sensor_id;sensor_type;location;lat;lon;timestamp;temperature;humidity
22781;DHT22;11557;50.884;4.322;2022-08-20T00:01:44;20.90;99.90
22781;DHT22;11557;50.884;4.322;2022-08-20T00:04:10;20.90;99.90
22781;DHT22;11557;50.884;4.322;2022-08-20T00:06:38;20.80;99.90
22781;DHT22;11557;50.884;4.322;2022-08-20T00:09:04;20.80;99.90
22781;DHT22;11557;50.884;4.322;2022-08-20T00:11:34;20.80;99.90
22781;DHT22;11557;50.884;4.322;2022-08-20T00:14:02;20.80;99.90
22781;DHT22;11557;50.884;4.322;2022-08-20T00:16:34;20.80;99.90
22781;DHT22;11557;50.884;4.322;2022-08-20T00:19:03;20.80;99.90
22781;DHT22;11557;50.884;4.322;2022-08-20T00:21:30;20.70;99.90
22781;DHT22;11557;50.884;4.322;2022-08-20T00:23:58;20.70;99.90
22781;DHT22;11557;50.884;4.322;2022-08-20T00:26:24;20.60;99.90
22781;DHT22;11557;50.884;4.322;2022-08-20T00:28:50;20.70;99.90
22781;DHT22;11557;50.884;4.322;2022-08-20T00:31:18;20.60;99.90
22781;DHT22;11557;50.884;4.322;2022-08-20T00:33:45;20.60;99.90
22781;DHT22;11557;50.884;4.322;2022-08-20T00:36:12;20.60;99.90
22781;DHT22;11557;50.884;4.322;2022-08-20T00:38:43;20.70;99.90
22781;DHT22;11557;50.884;4.322;2022-08-20T00:41:19;20.60;99.90
22781;DHT22;11557;50.884;4.322;2022-08-20T00:46:38;20.60;99.90
22781;DHT22;11557;50.884;4.322;2022-08-20T00:49:11;20.60;99.90
22781;DHT22;11557;50.884;4.322;2022-08-20T00:51:45;20.40;99.90
22781;DHT22;11557;50.884;4.322;2022-08-20T00:54:34;20.40;99.90
22781;DHT22;11557;50.884;4.322;2022-08-20T00:57:06;20.30;99.90
22781;DHT22;11557;50.884;4.322;2022-08-20T00:59:35;20.30;99.90
22781;DHT22;11557;50.884;4.322;2022-08-20T01:02:05;20.30;99.90
22781;DHT22;11557;50.884;4.322;2022-08-20T01:04:33;20.10;99.90
22781;DHT22;11557;50.884;4.322;2022-08-20T01:06:59;20.10;99.90
22781;DHT22;11557;50.884;4.322;2022-08-20T01:09:25;20.10;99.90
22781;DHT22;11557;50.884;4.322;2022-08-20T01:11:52;20.10;99.90
22781;DHT22;11557;50.884;4.322;2022-08-20T01:14:20;20.00;99.90
22781;DHT22;11557;50.884;4.322;2022-08-20T01:17:06;20.00;99.90
22781;DHT22;11557;50.884;4.322;2022-08-20T01:19:37;20.20;99.90
22781;DHT22;11557;50.884;4.322;2022-08-20T01:22:04;20.30;99.90
22781;DHT22;11557;50.884;4.322;2022-08-20T01:27:38;20.10;99.90
22781;DHT22;11557;50.884;4.322;2022-08-20T01:30:04;20.10;99.90
22781;DHT22;11557;50.884;4.322;2022-08-20T01:32:30;20.10;99.90
22781;DHT22;11557;50.884;4.322;2022-08-20T01:34:57;20.20;99.90
22781;DHT22;11557;50.884;4.322;2022-08-20T01:37:22;20.10;99.90
22781;DHT22;11557;50.884;4.322;2022-08-20T01:39:48;20.00;99.90
22781;DHT22;11557;50.884;4.322;2022-08-20T01:44:45;20.00;99.90
22781;DHT22;11557;50.884;4.322;2022-08-20T01:47:27;19.90;99.90
22781;DHT22;11557;50.884;4.322;2022-08-20T01:49:58;19.80;99.90
22781;DHT22;11557;50.884;4.322;2022-08-20T01:52:30;19.90;99.90
22781;DHT22;11557;50.884;4.322;2022-08-20T01:54:58;19.90;99.90
22781;DHT22;11557;50.884;4.322;2022-08-20T01:57:25;20.00;99.90
22781;DHT22;11557;50.884;4.322;2022-08-20T01:59:52;19.90;99.90
22781;DHT22;11557;50.884;4.322;2022-08-20T02:02:20;19.80;99.90
22781;DHT22;11557;50.884;4.322;2022-08-20T02:04:46;19.70;99.90
22781;DHT22;11557;50.884;4.322;2022-08-20T02:07:15;19.70;99.90
22781;DHT22;11557;50.884;4.322;2022-08-20T02:09:44;19.70;99.90
22781;DHT22;11557;50.884;4.322;2022-08-20T02:12:17;19.60;99.90
22781;DHT22;11557;50.884;4.322;2022-08-20T02:14:51;19.50;99.90
22781;DHT22;11557;50.884;4.322;2022-08-20T02:17:22;19.60;99.90
22781;DHT22;11557;50.884;4.322;2022-08-20T02:19:56;19.60;99.90
22781;DHT22;11557;50.884;4.322;2022-08-20T02:25:01;19.50;99.90
22781;DHT22;11557;50.884;4.322;2022-08-20T02:27:27;19.40;99.90
22781;DHT22;11557;50.884;4.322;2022-08-20T02:29:53;19.60;99.90
22781;DHT22;11557;50.884;4.322;2022-08-20T02:32:19;19.30;99.90
22781;DHT22;11557;50.884;4.322;2022-08-20T02:34:45;19.20;99.90
22781;DHT22;11557;50.884;4.322;2022-08-20T02:37:11;19.10;99.90
22781;DHT22;11557;50.884;4.322;2022-08-20T02:39:41;19.40;99.90
22781;DHT22;11557;50.884;4.322;2022-08-20T02:42:07;19.30;99.90
22781;DHT22;11557;50.884;4.322;2022-08-20T02:44:34;19.20;99.90
22781;DHT22;11557;50.884;4.322;2022-08-20T02:47:00;19.10;99.90
22781;DHT22;11557;50.884;4.322;2022-08-20T02:49:28;19.40;99.90
22781;DHT22;11557;50.884;4.322;2022-08-20T02:51:53;19.10;99.90
22781;DHT22;11557;50.884;4.322;2022-08-20T02:54:19;19.10;99.90
22781;DHT22;11557;50.884;4.322;2022-08-20T02:56:45;19.00;99.90
22781;DHT22;11557;50.884;4.322;2022-08-20T02:59:13;19.00;99.90
22781;DHT22;11557;50.884;4.322;2022-08-20T03:01:39;19.00;99.90
22781;DHT22;11557;50.884;4.322;2022-08-20T03:04:05;19.00;99.90
22781;DHT22;11557;50.884;4.322;2022-08-20T03:06:30;19.10;99.90
22781;DHT22;11557;50.884;4.322;2022-08-20T03:08:57;19.20;99.90
22781;DHT22;11557;50.884;4.322;2022-08-20T03:11:23;19.10;99.90
22781;DHT22;11557;50.884;4.322;2022-08-20T03:13:49;19.00;99.90
22781;DHT22;11557;50.884;4.322;2022-08-20T03:16:17;18.90;99.90
22781;DHT22;11557;50.884;4.322;2022-08-20T03:18:45;19.00;99.90
22781;DHT22;11557;50.884;4.322;2022-08-20T03:21:11;19.10;99.90
22781;DHT22;11557;50.884;4.322;2022-08-20T03:23:38;19.10;99.90
22781;DHT22;11557;50.884;4.322;2022-08-20T03:26:06;19.00;99.90
22781;DHT22;11557;50.884;4.322;2022-08-20T03:28:35;19.10;99.90
22781;DHT22;11557;50.884;4.322;2022-08-20T03:31:01;19.20;99.90
22781;DHT22;11557;50.884;4.322;2022-08-20T03:33:27;19.20;99.90
22781;DHT22;11557;50.884;4.322;2022-08-20T03:35:53;19.10;99.90
22781;DHT22;11557;50.884;4.322;2022-08-20T03:38:22;19.00;99.90
22781;DHT22;11557;50.884;4.322;2022-08-20T03:40:49;18.90;99.90
22781;DHT22;11557;50.884;4.322;2022-08-20T03:43:15;19.00;99.90
22781;DHT22;11557;50.884;4.322;2022-08-20T03:45:43;19.10;99.90
22781;DHT22;11557;50.884;4.322;2022-08-20T03:48:17;19.10;99.90
22781;DHT22;11557;50.884;4.322;2022-08-20T03:50:44;19.20;99.90
22781;DHT22;11557;50.884;4.322;2022-08-20T03:53:11;19.00;99.90
22781;DHT22;11557;50.884;4.322;2022-08-20T03:55:39;18.90;99.90
22781;DHT22;11557;50.884;4.322;2022-08-20T03:58:11;18.80;99.90
22781;DHT22;11557;50.884;4.322;2022-08-20T04:00:47;18.80;99.90
22781;DHT22;11557;50.884;4.322;2022-08-20T04:03:15;18.80;99.90
22781;DHT22;11557;50.884;4.322;2022-08-20T04:05:43;18.80;99.90
22781;DHT22;11557;50.884;4.322;2022-08-20T04:08:13;18.60;99.90
22781;DHT22;11557;50.884;4.322;2022-08-20T04:10:41;18.70;99.90
22781;DHT22;11557;50.884;4.322;2022-08-20T04:13:11;18.80;99.90
22781;DHT22;11557;50.884;4.322;2022-08-20T04:15:37;18.90;99.90
22781;DHT22;11557;50.884;4.322;2022-08-20T04:18:05;18.80;99.90
22781;DHT22;11557;50.884;4.322;2022-08-20T04:20:35;18.50;99.90
22781;DHT22;11557;50.884;4.322;2022-08-20T04:23:01;18.50;99.90
22781;DHT22;11557;50.884;4.322;2022-08-20T04:25:30;18.60;99.90
22781;DHT22;11557;50.884;4.322;2022-08-20T04:27:58;18.70;99.90
22781;DHT22;11557;50.884;4.322;2022-08-20T04:30:25;18.60;99.90
22781;DHT22;11557;50.884;4.322;2022-08-20T04:32:51;18.60;99.90
22781;DHT22;11557;50.884;4.322;2022-08-20T04:35:17;18.50;99.90
22781;DHT22;11557;50.884;4.322;2022-08-20T04:37:47;18.60;99.90
22781;DHT22;11557;50.884;4.322;2022-08-20T04:40:18;18.60;99.90
22781;DHT22;11557;50.884;4.322;2022-08-20T04:43:03;18.70;99.90
22781;DHT22;11557;50.884;4.322;2022-08-20T04:45:31;18.60;99.90
22781;DHT22;11557;50.884;4.322;2022-08-20T04:48:02;18.50;99.90
22781;DHT22;11557;50.884;4.322;2022-08-20T04:50:33;18.50;99.90
22781;DHT22;11557;50.884;4.322;2022-08-20T04:53:01;18.70;99.90
22781;DHT22;11557;50.884;4.322;2022-08-20T04:55:27;18.50;99.90
22781;DHT22;11557;50.884;4.322;2022-08-20T04:57:53;18.40;99.90
22781;DHT22;11557;50.884;4.322;2022-08-20T05:00:21;18.20;99.90
22781;DHT22;11557;50.884;4.322;2022-08-20T05:02:47;18.30;99.90
22781;DHT22;11557;50.884;4.322;2022-08-20T05:05:13;18.30;99.90
22781;DHT22;11557;50.884;4.322;2022-08-20T05:07:44;18.20;99.90
22781;DHT22;11557;50.884;4.322;2022-08-20T05:10:14;18.20;99.90
22781;DHT22;11557;50.884;4.322;2022-08-20T05:12:41;18.30;99.90
22781;DHT22;11557;50.884;4.322;2022-08-20T05:15:08;18.40;99.90
22781;DHT22;11557;50.884;4.322;2022-08-20T05:17:37;18.40;99.90
22781;DHT22;11557;50.884;4.322;2022-08-20T05:20:05;18.40;99.90
22781;DHT22;11557;50.884;4.322;2022-08-20T05:22:33;18.40;99.90
22781;DHT22;11557;50.884;4.322;2022-08-20T05:24:59;18.30;99.90
22781;DHT22;11557;50.884;4.322;2022-08-20T05:27:26;18.20;99.90
22781;DHT22;11557;50.884;4.322;2022-08-20T05:30:08;18.30;99.90
22781;DHT22;11557;50.884;4.322;2022-08-20T05:32:35;18.30;99.90
22781;DHT22;11557;50.884;4.322;2022-08-20T05:35:02;18.30;99.90
22781;DHT22;11557;50.884;4.322;2022-08-20T05:37:27;18.30;99.90
22781;DHT22;11557;50.884;4.322;2022-08-20T05:39:56;18.20;99.90
22781;DHT22;11557;50.884;4.322;2022-08-20T05:42:22;18.30;99.90
22781;DHT22;11557;50.884;4.322;2022-08-20T05:44:47;18.30;99.90
22781;DHT22;11557;50.884;4.322;2022-08-20T05:47:14;18.10;99.90
22781;DHT22;11557;50.884;4.322;2022-08-20T05:49:40;18.00;99.90
22781;DHT22;11557;50.884;4.322;2022-08-20T05:52:06;18.00;99.90
22781;DHT22;11557;50.884;4.322;2022-08-20T05:54:32;18.20;99.90
22781;DHT22;11557;50.884;4.322;2022-08-20T05:56:58;18.20;99.90
22781;DHT22;11557;50.884;4.322;2022-08-20T05:59:24;18.30;99.90
22781;DHT22;11557;50.884;4.322;2022-08-20T06:01:50;18.60;99.90
22781;DHT22;11557;50.884;4.322;2022-08-20T06:04:16;18.20;99.90
22781;DHT22;11557;50.884;4.322;2022-08-20T06:06:52;18.10;99.90
22781;DHT22;11557;50.884;4.322;2022-08-20T06:09:24;18.10;99.90
22781;DHT22;11557;50.884;4.322;2022-08-20T06:11:50;18.10;99.90
22781;DHT22;11557;50.884;4.322;2022-08-20T06:14:16;18.30;99.90
22781;DHT22;11557;50.884;4.322;2022-08-20T06:16:43;18.40;99.90
22781;DHT22;11557;50.884;4.322;2022-08-20T06:19:12;18.60;99.90
22781;DHT22;11557;50.884;4.322;2022-08-20T06:21:39;18.50;99.90
22781;DHT22;11557;50.884;4.322;2022-08-20T06:24:05;18.60;99.90
22781;DHT22;11557;50.884;4.322;2022-08-20T06:26:31;18.50;99.90
22781;DHT22;11557;50.884;4.322;2022-08-20T06:29:05;18.60;99.90
22781;DHT22;11557;50.884;4.322;2022-08-20T06:31:31;18.70;99.90
22781;DHT22;11557;50.884;4.322;2022-08-20T06:34:00;18.70;99.90
22781;DHT22;11557;50.884;4.322;2022-08-20T06:36:27;18.80;99.90
22781;DHT22;11557;50.884;4.322;2022-08-20T06:38:52;18.90;99.90
22781;DHT22;11557;50.884;4.322;2022-08-20T06:41:20;19.10;99.90
22781;DHT22;11557;50.884;4.322;2022-08-20T06:43:47;19.10;99.90
22781;DHT22;11557;50.884;4.322;2022-08-20T06:46:15;19.10;99.90
22781;DHT22;11557;50.884;4.322;2022-08-20T06:48:41;19.10;99.90
22781;DHT22;11557;50.884;4.322;2022-08-20T06:51:07;19.10;99.90
22781;DHT22;11557;50.884;4.322;2022-08-20T06:53:34;19.20;99.90
22781;DHT22;11557;50.884;4.322;2022-08-20T06:56:00;19.60;99.90
22781;DHT22;11557;50.884;4.322;2022-08-20T06:58:27;19.60;99.90
22781;DHT22;11557;50.884;4.322;2022-08-20T07:00:53;19.80;99.90
22781;DHT22;11557;50.884;4.322;2022-08-20T07:03:20;19.70;99.90
22781;DHT22;11557;50.884;4.322;2022-08-20T07:05:46;19.80;99.90
22781;DHT22;11557;50.884;4.322;2022-08-20T07:08:15;19.90;99.90
22781;DHT22;11557;50.884;4.322;2022-08-20T07:10:44;19.90;99.90
22781;DHT22;11557;50.884;4.322;2022-08-20T07:13:11;20.10;99.90
22781;DHT22;11557;50.884;4.322;2022-08-20T07:15:37;20.20;99.90
22781;DHT22;11557;50.884;4.322;2022-08-20T07:18:04;20.20;99.90
22781;DHT22;11557;50.884;4.322;2022-08-20T07:20:32;20.40;99.90
22781;DHT22;11557;50.884;4.322;2022-08-20T07:22:58;20.50;99.90
22781;DHT22;11557;50.884;4.322;2022-08-20T07:25:25;20.40;99.90
22781;DHT22;11557;50.884;4.322;2022-08-20T07:27:51;20.40;99.90
22781;DHT22;11557;50.884;4.322;2022-08-20T07:30:23;20.40;99.90
22781;DHT22;11557;50.884;4.322;2022-08-20T07:33:07;20.30;99.90
22781;DHT22;11557;50.884;4.322;2022-08-20T07:35:33;20.20;99.90
22781;DHT22;11557;50.884;4.322;2022-08-20T07:37:59;20.30;99.90
22781;DHT22;11557;50.884;4.322;2022-08-20T07:40:29;20.30;99.90
22781;DHT22;11557;50.884;4.322;2022-08-20T07:42:56;20.50;99.90
22781;DHT22;11557;50.884;4.322;2022-08-20T07:45:23;20.40;99.90
22781;DHT22;11557;50.884;4.322;2022-08-20T07:47:49;20.40;99.90
22781;DHT22;11557;50.884;4.322;2022-08-20T07:50:18;20.30;99.90
22781;DHT22;11557;50.884;4.322;2022-08-20T07:52:44;20.20;99.90
22781;DHT22;11557;50.884;4.322;2022-08-20T07:55:14;20.30;99.90
22781;DHT22;11557;50.884;4.322;2022-08-20T07:57:41;20.30;99.90
22781;DHT22;11557;50.884;4.322;2022-08-20T08:00:08;20.10;99.90
22781;DHT22;11557;50.884;4.322;2022-08-20T08:02:35;20.10;99.90
22781;DHT22;11557;50.884;4.322;2022-08-20T08:05:01;20.10;99.90
22781;DHT22;11557;50.884;4.322;2022-08-20T08:07:27;20.30;99.90
22781;DHT22;11557;50.884;4.322;2022-08-20T08:09:54;20.50;99.90
22781;DHT22;11557;50.884;4.322;2022-08-20T08:12:21;20.60;99.90
22781;DHT22;11557;50.884;4.322;2022-08-20T08:14:48;20.40;99.90
22781;DHT22;11557;50.884;4.322;2022-08-20T08:17:14;20.60;99.90
22781;DHT22;11557;50.884;4.322;2022-08-20T08:19:43;20.70;99.90
22781;DHT22;11557;50.884;4.322;2022-08-20T08:22:13;21.10;99.90
22781;DHT22;11557;50.884;4.322;2022-08-20T08:24:42;22.90;99.90
22781;DHT22;11557;50.884;4.322;2022-08-20T08:27:09;24.70;99.90
22781;DHT22;11557;50.884;4.322;2022-08-20T08:29:36;26.70;99.90
22781;DHT22;11557;50.884;4.322;2022-08-20T08:32:03;28.10;99.90
22781;DHT22;11557;50.884;4.322;2022-08-20T08:34:31;29.30;99.90
22781;DHT22;11557;50.884;4.322;2022-08-20T08:36:57;30.70;99.90
22781;DHT22;11557;50.884;4.322;2022-08-20T08:39:29;30.80;99.90
22781;DHT22;11557;50.884;4.322;2022-08-20T08:41:56;31.00;99.90
22781;DHT22;11557;50.884;4.322;2022-08-20T08:44:33;30.90;99.90
22781;DHT22;11557;50.884;4.322;2022-08-20T08:47:05;32.30;99.90
22781;DHT22;11557;50.884;4.322;2022-08-20T08:49:35;32.00;99.90
22781;DHT22;11557;50.884;4.322;2022-08-20T08:52:01;32.00;99.90
22781;DHT22;11557;50.884;4.322;2022-08-20T08:54:29;32.60;99.90
22781;DHT22;11557;50.884;4.322;2022-08-20T08:56:56;31.20;99.90
22781;DHT22;11557;50.884;4.322;2022-08-20T08:59:27;31.00;99.90
22781;DHT22;11557;50.884;4.322;2022-08-20T09:01:55;30.70;99.90
22781;DHT22;11557;50.884;4.322;2022-08-20T09:04:26;29.70;99.90
22781;DHT22;11557;50.884;4.322;2022-08-20T09:06:57;29.50;99.90
22781;DHT22;11557;50.884;4.322;2022-08-20T09:09:28;29.90;99.90
22781;DHT22;11557;50.884;4.322;2022-08-20T09:12:12;29.90;99.90
22781;DHT22;11557;50.884;4.322;2022-08-20T09:14:38;30.50;99.90
22781;DHT22;11557;50.884;4.322;2022-08-20T09:17:04;32.20;99.90
22781;DHT22;11557;50.884;4.322;2022-08-20T09:19:30;32.00;99.90
22781;DHT22;11557;50.884;4.322;2022-08-20T09:21:56;32.60;99.90
22781;DHT22;11557;50.884;4.322;2022-08-20T09:24:22;31.10;99.90
22781;DHT22;11557;50.884;4.322;2022-08-20T09:26:50;29.40;99.90
22781;DHT22;11557;50.884;4.322;2022-08-20T09:29:18;27.00;99.90
22781;DHT22;11557;50.884;4.322;2022-08-20T09:31:44;25.90;99.90
22781;DHT22;11557;50.884;4.322;2022-08-20T09:34:13;25.50;99.90
22781;DHT22;11557;50.884;4.322;2022-08-20T09:36:38;26.20;99.90
22781;DHT22;11557;50.884;4.322;2022-08-20T09:39:04;26.70;99.90
22781;DHT22;11557;50.884;4.322;2022-08-20T09:41:31;27.30;99.90
22781;DHT22;11557;50.884;4.322;2022-08-20T09:43:57;28.00;99.90
22781;DHT22;11557;50.884;4.322;2022-08-20T09:46:24;28.50;99.90
22781;DHT22;11557;50.884;4.322;2022-08-20T09:48:51;28.60;99.90
22781;DHT22;11557;50.884;4.322;2022-08-20T09:51:16;28.40;99.90
22781;DHT22;11557;50.884;4.322;2022-08-20T09:53:42;28.70;99.90
22781;DHT22;11557;50.884;4.322;2022-08-20T09:56:08;29.60;99.90
22781;DHT22;11557;50.884;4.322;2022-08-20T10:01:09;28.10;99.90
22781;DHT22;11557;50.884;4.322;2022-08-20T10:03:35;27.60;99.90
22781;DHT22;11557;50.884;4.322;2022-08-20T10:06:01;27.70;99.90
22781;DHT22;11557;50.884;4.322;2022-08-20T10:08:26;27.30;99.90
22781;DHT22;11557;50.884;4.322;2022-08-20T10:10:53;27.70;99.90
22781;DHT22;11557;50.884;4.322;2022-08-20T10:13:19;27.80;99.90
22781;DHT22;11557;50.884;4.322;2022-08-20T10:15:45;27.80;99.90
22781;DHT22;11557;50.884;4.322;2022-08-20T10:18:10;27.90;99.90
22781;DHT22;11557;50.884;4.322;2022-08-20T10:20:36;27.40;99.90
22781;DHT22;11557;50.884;4.322;2022-08-20T10:23:02;27.80;99.90
22781;DHT22;11557;50.884;4.322;2022-08-20T10:25:29;28.00;99.90
22781;DHT22;11557;50.884;4.322;2022-08-20T10:27:56;28.10;99.90
22781;DHT22;11557;50.884;4.322;2022-08-20T10:30:22;27.80;99.90
22781;DHT22;11557;50.884;4.322;2022-08-20T10:32:47;27.30;99.90
22781;DHT22;11557;50.884;4.322;2022-08-20T10:35:13;27.10;99.90
22781;DHT22;11557;50.884;4.322;2022-08-20T10:37:43;27.30;99.90
22781;DHT22;11557;50.884;4.322;2022-08-20T10:40:11;27.30;99.90
22781;DHT22;11557;50.884;4.322;2022-08-20T10:42:39;27.50;99.90
22781;DHT22;11557;50.884;4.322;2022-08-20T10:45:05;27.10;99.90
22781;DHT22;11557;50.884;4.322;2022-08-20T10:47:31;26.80;99.90
22781;DHT22;11557;50.884;4.322;2022-08-20T10:49:59;26.80;99.90
22781;DHT22;11557;50.884;4.322;2022-08-20T10:52:26;26.20;99.90
22781;DHT22;11557;50.884;4.322;2022-08-20T10:54:52;25.90;99.90
22781;DHT22;11557;50.884;4.322;2022-08-20T10:57:23;25.90;99.90
22781;DHT22;11557;50.884;4.322;2022-08-20T10:59:51;26.10;99.90
22781;DHT22;11557;50.884;4.322;2022-08-20T11:02:19;26.30;99.90
22781;DHT22;11557;50.884;4.322;2022-08-20T11:04:45;26.30;99.90
22781;DHT22;11557;50.884;4.322;2022-08-20T11:07:17;26.30;99.90
22781;DHT22;11557;50.884;4.322;2022-08-20T11:09:43;26.10;99.90
22781;DHT22;11557;50.884;4.322;2022-08-20T11:12:09;26.10;99.90
22781;DHT22;11557;50.884;4.322;2022-08-20T11:14:35;26.20;99.90
22781;DHT22;11557;50.884;4.322;2022-08-20T11:17:02;26.00;99.90
22781;DHT22;11557;50.884;4.322;2022-08-20T11:19:28;25.70;99.90
22781;DHT22;11557;50.884;4.322;2022-08-20T11:21:53;25.30;99.90
22781;DHT22;11557;50.884;4.322;2022-08-20T11:24:19;25.40;99.90
22781;DHT22;11557;50.884;4.322;2022-08-20T11:26:46;25.30;99.90
22781;DHT22;11557;50.884;4.322;2022-08-20T11:29:14;25.60;99.90
22781;DHT22;11557;50.884;4.322;2022-08-20T11:31:39;25.80;99.90
22781;DHT22;11557;50.884;4.322;2022-08-20T11:34:05;26.00;99.90
22781;DHT22;11557;50.884;4.322;2022-08-20T11:36:31;26.20;99.90
22781;DHT22;11557;50.884;4.322;2022-08-20T11:38:57;26.20;99.90
22781;DHT22;11557;50.884;4.322;2022-08-20T11:41:22;26.30;99.90
22781;DHT22;11557;50.884;4.322;2022-08-20T11:43:48;26.30;99.90
22781;DHT22;11557;50.884;4.322;2022-08-20T11:46:13;26.30;99.90
22781;DHT22;11557;50.884;4.322;2022-08-20T11:48:39;26.20;99.90
22781;DHT22;11557;50.884;4.322;2022-08-20T11:51:05;26.30;99.90
22781;DHT22;11557;50.884;4.322;2022-08-20T11:53:30;26.50;99.90
22781;DHT22;11557;50.884;4.322;2022-08-20T11:55:56;26.70;99.90
22781;DHT22;11557;50.884;4.322;2022-08-20T11:58:22;26.80;99.90
22781;DHT22;11557;50.884;4.322;2022-08-20T12:00:48;26.50;99.90
22781;DHT22;11557;50.884;4.322;2022-08-20T12:03:15;26.50;99.90
22781;DHT22;11557;50.884;4.322;2022-08-20T12:05:42;26.60;99.90
22781;DHT22;11557;50.884;4.322;2022-08-20T12:08:09;26.70;99.90
22781;DHT22;11557;50.884;4.322;2022-08-20T12:10:35;26.70;99.90
22781;DHT22;11557;50.884;4.322;2022-08-20T12:13:01;26.70;99.90
22781;DHT22;11557;50.884;4.322;2022-08-20T12:15:27;26.70;99.90
22781;DHT22;11557;50.884;4.322;2022-08-20T12:17:53;26.30;99.90
22781;DHT22;11557;50.884;4.322;2022-08-20T12:20:19;25.90;99.90
22781;DHT22;11557;50.884;4.322;2022-08-20T12:22:45;26.20;99.90
22781;DHT22;11557;50.884;4.322;2022-08-20T12:25:12;26.40;99.90
22781;DHT22;11557;50.884;4.322;2022-08-20T12:27:39;26.60;99.90
22781;DHT22;11557;50.884;4.322;2022-08-20T12:30:11;26.90;99.90
22781;DHT22;11557;50.884;4.322;2022-08-20T12:32:38;26.90;99.90
22781;DHT22;11557;50.884;4.322;2022-08-20T12:35:07;26.90;99.90
22781;DHT22;11557;50.884;4.322;2022-08-20T12:37:35;26.90;99.90
22781;DHT22;11557;50.884;4.322;2022-08-20T12:40:03;26.50;99.90
22781;DHT22;11557;50.884;4.322;2022-08-20T12:42:29;26.50;99.90
22781;DHT22;11557;50.884;4.322;2022-08-20T12:44:56;26.70;99.90
22781;DHT22;11557;50.884;4.322;2022-08-20T12:47:34;26.80;99.90
22781;DHT22;11557;50.884;4.322;2022-08-20T12:50:03;27.00;99.90
22781;DHT22;11557;50.884;4.322;2022-08-20T12:52:29;27.10;99.90
22781;DHT22;11557;50.884;4.322;2022-08-20T12:54:57;27.00;99.90
22781;DHT22;11557;50.884;4.322;2022-08-20T12:57:27;27.30;99.90
22781;DHT22;11557;50.884;4.322;2022-08-20T13:00:18;27.40;99.90
22781;DHT22;11557;50.884;4.322;2022-08-20T13:02:46;27.30;99.90
22781;DHT22;11557;50.884;4.322;2022-08-20T13:05:13;27.30;99.90
22781;DHT22;11557;50.884;4.322;2022-08-20T13:07:40;27.30;99.90
22781;DHT22;11557;50.884;4.322;2022-08-20T13:10:07;27.40;99.90
22781;DHT22;11557;50.884;4.322;2022-08-20T13:12:34;27.20;99.90
22781;DHT22;11557;50.884;4.322;2022-08-20T13:14:59;26.90;99.90
22781;DHT22;11557;50.884;4.322;2022-08-20T13:17:25;26.80;99.90
22781;DHT22;11557;50.884;4.322;2022-08-20T13:19:51;26.90;99.90
22781;DHT22;11557;50.884;4.322;2022-08-20T13:22:16;26.90;99.90
22781;DHT22;11557;50.884;4.322;2022-08-20T13:24:43;26.90;99.90
22781;DHT22;11557;50.884;4.322;2022-08-20T13:27:13;27.20;99.90
22781;DHT22;11557;50.884;4.322;2022-08-20T13:29:50;27.00;99.90
22781;DHT22;11557;50.884;4.322;2022-08-20T13:32:16;27.10;99.90
22781;DHT22;11557;50.884;4.322;2022-08-20T13:34:42;27.20;99.90
22781;DHT22;11557;50.884;4.322;2022-08-20T13:37:15;27.00;99.90
22781;DHT22;11557;50.884;4.322;2022-08-20T13:39:41;26.60;99.90
22781;DHT22;11557;50.884;4.322;2022-08-20T13:42:08;26.30;99.90
22781;DHT22;11557;50.884;4.322;2022-08-20T13:44:33;26.20;99.90
22781;DHT22;11557;50.884;4.322;2022-08-20T13:46:59;26.30;99.90
22781;DHT22;11557;50.884;4.322;2022-08-20T13:49:25;26.40;99.90
22781;DHT22;11557;50.884;4.322;2022-08-20T13:51:51;26.60;99.90
22781;DHT22;11557;50.884;4.322;2022-08-20T13:54:17;26.70;99.90
22781;DHT22;11557;50.884;4.322;2022-08-20T13:56:42;26.60;99.90
22781;DHT22;11557;50.884;4.322;2022-08-20T13:59:08;26.50;99.90
22781;DHT22;11557;50.884;4.322;2022-08-20T14:01:34;26.70;99.90
22781;DHT22;11557;50.884;4.322;2022-08-20T14:03:59;26.70;99.90
22781;DHT22;11557;50.884;4.322;2022-08-20T14:06:25;26.70;99.90
22781;DHT22;11557;50.884;4.322;2022-08-20T14:08:50;26.90;99.90
22781;DHT22;11557;50.884;4.322;2022-08-20T14:11:16;26.80;99.90
22781;DHT22;11557;50.884;4.322;2022-08-20T14:13:42;26.70;99.90
22781;DHT22;11557;50.884;4.322;2022-08-20T14:16:08;26.60;99.90
22781;DHT22;11557;50.884;4.322;2022-08-20T14:18:33;26.70;99.90
22781;DHT22;11557;50.884;4.322;2022-08-20T14:20:59;26.90;99.90
22781;DHT22;11557;50.884;4.322;2022-08-20T14:23:24;27.10;99.90
22781;DHT22;11557;50.884;4.322;2022-08-20T14:25:50;27.30;99.90
22781;DHT22;11557;50.884;4.322;2022-08-20T14:28:19;27.40;99.90
22781;DHT22;11557;50.884;4.322;2022-08-20T14:30:46;27.40;99.90
22781;DHT22;11557;50.884;4.322;2022-08-20T14:33:12;27.00;99.90
22781;DHT22;11557;50.884;4.322;2022-08-20T14:35:38;26.60;99.90
22781;DHT22;11557;50.884;4.322;2022-08-20T14:38:04;26.60;99.90
22781;DHT22;11557;50.884;4.322;2022-08-20T14:40:31;26.30;99.90
22781;DHT22;11557;50.884;4.322;2022-08-20T14:42:59;26.20;99.90
22781;DHT22;11557;50.884;4.322;2022-08-20T14:45:24;26.30;99.90
22781;DHT22;11557;50.884;4.322;2022-08-20T14:47:53;25.90;99.90
22781;DHT22;11557;50.884;4.322;2022-08-20T14:50:26;25.60;99.90
22781;DHT22;11557;50.884;4.322;2022-08-20T14:52:53;25.40;99.90
22781;DHT22;11557;50.884;4.322;2022-08-20T14:55:21;25.20;99.90
22781;DHT22;11557;50.884;4.322;2022-08-20T14:57:47;25.20;99.90
22781;DHT22;11557;50.884;4.322;2022-08-20T15:00:16;25.40;99.90
22781;DHT22;11557;50.884;4.322;2022-08-20T15:02:44;25.70;99.90
22781;DHT22;11557;50.884;4.322;2022-08-20T15:05:10;25.80;99.90
22781;DHT22;11557;50.884;4.322;2022-08-20T15:07:39;25.80;99.90
22781;DHT22;11557;50.884;4.322;2022-08-20T15:10:08;25.90;99.90
22781;DHT22;11557;50.884;4.322;2022-08-20T15:12:35;25.90;99.90
22781;DHT22;11557;50.884;4.322;2022-08-20T15:15:03;26.20;99.90
22781;DHT22;11557;50.884;4.322;2022-08-20T15:17:31;26.30;99.90
22781;DHT22;11557;50.884;4.322;2022-08-20T15:20:05;26.00;99.90
22781;DHT22;11557;50.884;4.322;2022-08-20T15:22:37;26.00;99.90
22781;DHT22;11557;50.884;4.322;2022-08-20T15:25:03;25.70;99.90
22781;DHT22;11557;50.884;4.322;2022-08-20T15:27:29;25.70;99.90
22781;DHT22;11557;50.884;4.322;2022-08-20T15:29:55;25.60;99.90
22781;DHT22;11557;50.884;4.322;2022-08-20T15:32:20;25.40;99.90
22781;DHT22;11557;50.884;4.322;2022-08-20T15:34:46;25.40;99.90
22781;DHT22;11557;50.884;4.322;2022-08-20T15:37:15;25.60;99.90
22781;DHT22;11557;50.884;4.322;2022-08-20T15:39:42;25.70;99.90
22781;DHT22;11557;50.884;4.322;2022-08-20T15:42:09;25.60;99.90
22781;DHT22;11557;50.884;4.322;2022-08-20T15:44:35;25.50;99.90
22781;DHT22;11557;50.884;4.322;2022-08-20T15:47:28;25.60;99.90